Farndon, United Kingdom
Current Conditions -  °F | °C
As of 2:50 PM on Friday 19 Dec 2014 (Local Time) from EGYD Reporting Station
Broken Clouds Broken Clouds  
Wind Chill:   Ceiling: 3800
Heat Index:   Visibility: 6mi
Dew Point:   Wind: 23mph
Humidity: 62%   Direction: 270°W
Pressure: 29.91"   Gusts: NA
Location:  53.05°N, 0.85°W
Report Text: EGYD 191450Z 27020KT 9999 BKN038 08/01 Q1013 BLU
Loading
Personal Weather Stations






























Interactive Weather Map New forecast layout! Learn more

10-Day Weather Forecast

Advertisements
Track Severe Weather on mobile